Time;durP1;ratioP1;P1;durP2;ratioP2;P2;SDS_P1;SDS_P2;PMS_P1;PMS_P2;Temp;Humidity;BMP_temperature;BMP_pressure;BME280_temperature;BME280_humidity;BME280_pressure;Samples;Min_cycle;Max_cycle;Signal;HPM_P1;HPM_P2
2023/12/05 00:01:11;;;;;;;9.00;5.60;;;4.10;1.00;;;;;;5009326;28;20600;-77
2023/12/05 00:03:37;;;;;;;14.20;5.87;;;4.10;1.00;;;;;;5008199;28;20336;-78
2023/12/05 00:06:02;;;;;;;9.17;5.03;;;4.10;1.00;;;;;;5007931;28;20712;-76
2023/12/05 00:08:28;;;;;;;10.93;6.60;;;4.30;1.00;;;;;;5009086;28;20193;-73
2023/12/05 00:10:54;;;;;;;12.50;6.10;;;4.30;1.00;;;;;;5008092;28;20175;-74
2023/12/05 00:13:19;;;;;;;11.00;6.23;;;4.40;1.00;;;;;;5009379;28;20179;-74
2023/12/05 00:15:45;;;;;;;9.50;5.60;;;4.40;1.00;;;;;;5007146;28;20189;-73
2023/12/05 00:18:10;;;;;;;8.80;5.20;;;4.40;1.00;;;;;;5005163;28;20190;-73
2023/12/05 00:20:36;;;;;;;10.87;5.50;;;4.50;1.00;;;;;;5007234;28;20191;-74
2023/12/05 00:23:01;;;;;;;13.10;6.00;;;4.50;1.00;;;;;;5006982;28;20182;-74
2023/12/05 00:25:27;;;;;;;11.30;5.77;;;4.50;1.00;;;;;;5007197;28;20217;-73
2023/12/05 00:27:52;;;;;;;9.40;5.07;;;4.50;1.00;;;;;;5007004;28;20198;-74
2023/12/05 00:30:18;;;;;;;11.60;5.23;;;4.50;1.00;;;;;;5007918;28;20174;-74
2023/12/05 00:32:43;;;;;;;9.67;5.17;;;4.50;1.00;;;;;;5007184;28;20260;-74
2023/12/05 00:35:09;;;;;;;10.20;5.10;;;4.60;1.00;;;;;;5008746;28;20182;-73
2023/12/05 00:37:34;;;;;;;14.07;5.83;;;4.60;1.00;;;;;;5007370;28;20213;-74
2023/12/05 00:40:00;;;;;;;11.60;5.33;;;4.70;1.00;;;;;;5008358;28;20341;-74
2023/12/05 00:42:25;;;;;;;6.57;4.30;;;4.80;1.00;;;;;;5008149;28;20195;-75
2023/12/05 00:44:51;;;;;;;12.00;5.03;;;4.80;1.00;;;;;;4999083;28;20183;-74
2023/12/05 00:47:16;;;;;;;10.83;5.10;;;4.80;1.00;;;;;;5011132;28;20203;-76
2023/12/05 00:49:42;;;;;;;9.93;5.57;;;4.80;1.00;;;;;;5008750;28;20234;-73
2023/12/05 00:52:08;;;;;;;10.30;5.40;;;4.80;1.00;;;;;;5008233;28;20240;-77
2023/12/05 00:54:33;;;;;;;9.50;5.07;;;4.70;1.00;;;;;;5004043;28;20688;-77
2023/12/05 00:56:59;;;;;;;10.60;5.93;;;4.70;1.00;;;;;;5007742;28;20530;-77
2023/12/05 00:59:24;;;;;;;9.23;5.10;;;4.70;1.00;;;;;;5008934;28;20183;-76
2023/12/05 01:01:50;;;;;;;10.30;5.50;;;4.70;1.00;;;;;;5008306;28;20572;-77
2023/12/05 01:04:15;;;;;;;10.13;5.50;;;4.70;1.00;;;;;;5003837;28;20179;-76
2023/12/05 01:06:41;;;;;;;11.13;5.50;;;4.80;1.00;;;;;;5004816;28;20714;-77
2023/12/05 01:09:07;;;;;;;10.63;4.87;;;4.80;1.00;;;;;;5007897;28;20217;-76
2023/12/05 01:11:32;;;;;;;10.13;4.90;;;4.80;1.00;;;;;;5008369;28;20732;-77
2023/12/05 01:13:58;;;;;;;11.67;5.60;;;4.70;1.00;;;;;;5006587;28;20429;-77
2023/12/05 01:16:23;;;;;;;12.30;5.17;;;4.70;1.00;;;;;;5008857;28;20256;-78
2023/12/05 01:18:49;;;;;;;13.47;5.33;;;4.70;1.00;;;;;;5006869;28;20668;-77
2023/12/05 01:21:14;;;;;;;10.90;5.50;;;4.70;1.00;;;;;;5008104;28;20194;-77
2023/12/05 01:23:41;;;;;;;8.97;4.93;;;4.70;1.00;;;;;;5004301;28;20272;-78
2023/12/05 01:26:06;;;;;;;7.70;4.83;;;4.80;1.00;;;;;;5006207;28;20210;-77
2023/12/05 01:28:32;;;;;;;8.30;4.83;;;4.80;1.00;;;;;;5007190;28;20425;-75
2023/12/05 01:30:58;;;;;;;10.10;4.83;;;4.90;1.00;;;;;;5008266;28;20183;-77
2023/12/05 01:33:23;;;;;;;8.33;5.03;;;4.80;1.00;;;;;;5007530;28;20186;-76
2023/12/05 01:35:49;;;;;;;9.30;4.57;;;6.00;1.00;;;;;;5008021;28;20237;-76
2023/12/05 01:38:14;;;;;;;7.83;4.93;;;4.80;1.00;;;;;;5007189;28;20190;-77
2023/12/05 01:40:40;;;;;;;8.17;4.60;;;4.90;1.00;;;;;;5006990;28;20201;-77
2023/12/05 01:43:05;;;;;;;8.50;4.83;;;4.90;1.00;;;;;;5007731;28;20194;-77
2023/12/05 01:45:30;;;;;;;7.87;4.80;;;5.10;1.00;;;;;;5005553;28;20260;-79
2023/12/05 01:47:56;;;;;;;6.83;4.20;;;5.20;1.00;;;;;;5007388;28;20203;-77
2023/12/05 01:50:26;;;;;;;7.57;4.70;;;4.90;1.00;;;;;;5008684;28;20178;-76
2023/12/05 01:52:54;;;;;;;9.70;4.70;;;4.90;1.00;;;;;;5008521;28;20186;-77
2023/12/05 01:55:21;;;;;;;7.77;4.27;;;5.10;1.00;;;;;;5008398;28;20912;-77
2023/12/05 01:57:48;;;;;;;6.80;3.87;;;5.20;1.00;;;;;;5008010;28;20461;-76
2023/12/05 02:00:15;;;;;;;8.00;4.20;;;4.80;1.00;;;;;;5011122;28;20433;-78
2023/12/05 02:02:41;;;;;;;6.90;4.17;;;4.80;1.00;;;;;;5008797;28;20483;-77
2023/12/05 02:05:09;;;;;;;8.60;4.90;;;4.90;1.00;;;;;;5004729;28;20828;-76
2023/12/05 02:07:35;;;;;;;10.40;4.33;;;4.90;1.00;;;;;;5009744;28;20224;-77
2023/12/05 02:10:00;;;;;;;8.50;4.83;;;4.90;1.00;;;;;;5010447;28;21022;-77
2023/12/05 02:12:26;;;;;;;7.00;4.23;;;5.20;1.00;;;;;;5011247;28;20452;-76
2023/12/05 02:14:52;;;;;;;8.70;4.57;;;5.10;1.00;;;;;;5011414;28;20201;-75
2023/12/05 02:17:38;;;;;;;8.63;4.60;;;5.10;1.00;;;;;;5010081;28;20234;-76
2023/12/05 02:20:18;;;;;;;7.70;4.50;;;5.00;1.00;;;;;;5008564;28;20496;-77
2023/12/05 02:23:01;;;;;;;8.63;4.80;;;5.00;1.00;;;;;;5011644;28;20417;-77
2023/12/05 02:26:04;;;;;;;7.53;4.77;;;5.00;1.00;;;;;;5008571;28;20457;-76
2023/12/05 02:28:32;;;;;;;8.83;5.00;;;4.90;1.00;;;;;;5009707;28;20425;-78
2023/12/05 02:30:57;;;;;;;5.53;3.90;;;5.30;1.00;;;;;;5010108;28;20436;-76
2023/12/05 02:33:23;;;;;;;8.90;3.77;;;5.40;1.00;;;;;;5011107;28;20461;-78
2023/12/05 02:36:16;;;;;;;8.50;3.93;;;5.00;1.00;;;;;;5010010;28;20183;-75
2023/12/05 02:39:00;;;;;;;6.60;3.80;;;5.00;1.00;;;;;;4994081;28;20186;-79
2023/12/05 02:41:30;;;;;;;6.93;3.80;;;5.00;1.00;;;;;;5004196;28;20444;-77
2023/12/05 02:44:05;;;;;;;6.77;3.70;;;5.50;1.00;;;;;;5008681;28;20518;-76
2023/12/05 02:46:32;;;;;;;7.60;4.27;;;5.50;1.00;;;;;;5010295;28;20900;-76
2023/12/05 02:49:00;;;;;;;8.73;4.37;;;5.40;1.00;;;;;;5010909;28;20422;-76
2023/12/05 02:51:25;;;;;;;9.07;4.40;;;5.10;1.00;;;;;;5009155;28;20512;-77
2023/12/05 02:53:51;;;;;;;6.63;4.20;;;4.70;1.00;;;;;;5009613;28;20430;-77
2023/12/05 02:56:18;;;;;;;9.17;5.10;;;4.70;1.00;;;;;;5009634;28;20206;-78
2023/12/05 02:58:43;;;;;;;8.50;4.80;;;5.00;1.00;;;;;;5010910;28;20748;-78
2023/12/05 03:01:09;;;;;;;7.30;4.47;;;5.10;1.00;;;;;;5008564;28;20505;-77
2023/12/05 03:03:34;;;;;;;10.50;4.57;;;4.50;1.00;;;;;;5009621;28;20190;-78
2023/12/05 03:06:00;;;;;;;6.53;4.20;;;4.70;1.00;;;;;;5009364;28;20214;-76
2023/12/05 03:08:25;;;;;;;12.23;4.47;;;4.70;1.00;;;;;;5010314;28;20261;-77
2023/12/05 03:10:51;;;;;;;7.03;4.20;;;4.80;1.00;;;;;;5009424;28;20179;-77
2023/12/05 03:13:17;;;;;;;10.07;4.03;;;5.10;1.00;;;;;;5010261;28;20499;-78
2023/12/05 03:15:42;;;;;;;10.20;4.60;;;4.90;1.00;;;;;;5008692;28;20193;-75
2023/12/05 03:18:07;;;;;;;8.40;4.87;;;4.90;1.00;;;;;;5010181;28;20213;-76
2023/12/05 03:20:33;;;;;;;7.37;4.60;;;5.00;1.00;;;;;;5010322;28;20213;-77
2023/12/05 03:22:58;;;;;;;8.17;5.00;;;5.00;1.00;;;;;;5007982;28;20258;-77
2023/12/05 03:25:24;;;;;;;8.70;4.53;;;4.90;1.00;;;;;;5010505;28;20685;-76
2023/12/05 03:27:49;;;;;;;8.60;4.20;;;4.80;1.00;;;;;;5008726;28;20206;-77
2023/12/05 03:30:15;;;;;;;6.50;3.87;;;5.30;1.00;;;;;;5009811;28;20598;-77
2023/12/05 03:32:40;;;;;;;6.63;4.13;;;4.90;1.00;;;;;;5010401;28;20187;-77
2023/12/05 03:35:06;;;;;;;7.30;4.17;;;5.00;1.00;;;;;;5007623;28;20186;-76
2023/12/05 03:37:32;;;;;;;9.13;5.00;;;5.10;1.00;;;;;;5009950;28;20210;-79
2023/12/05 03:39:57;;;;;;;6.80;4.37;;;5.50;1.00;;;;;;5008259;28;20600;-76
2023/12/05 03:42:23;;;;;;;8.57;3.90;;;5.20;1.00;;;;;;5009520;28;20549;-75
2023/12/05 03:44:48;;;;;;;9.00;4.83;;;5.70;1.00;;;;;;5010276;28;20186;-77
2023/12/05 03:47:14;;;;;;;6.47;3.77;;;5.30;1.00;;;;;;5009679;28;20221;-76
2023/12/05 03:49:39;;;;;;;6.90;4.03;;;5.30;1.00;;;;;;5009196;28;20214;-77
2023/12/05 03:52:05;;;;;;;5.30;3.90;;;5.30;1.00;;;;;;5009361;28;20248;-76
2023/12/05 03:54:31;;;;;;;6.00;3.97;;;5.60;1.00;;;;;;5010359;28;20530;-77
2023/12/05 03:56:56;;;;;;;7.17;3.63;;;5.80;1.00;;;;;;5008258;28;20253;-78
2023/12/05 03:59:22;;;;;;;5.80;3.90;;;5.30;1.00;;;;;;5008738;28;20488;-76
2023/12/05 04:01:47;;;;;;;6.10;3.60;;;5.30;1.00;;;;;;5010230;28;20186;-77
2023/12/05 04:04:13;;;;;;;7.13;3.90;;;5.70;1.00;;;;;;5009278;28;20269;-78
2023/12/05 04:06:38;;;;;;;6.17;3.87;;;5.30;1.00;;;;;;5009420;28;20218;-77
2023/12/05 04:09:04;;;;;;;7.83;3.50;;;5.60;1.00;;;;;;5007176;28;20711;-76
2023/12/05 04:11:34;;;;;;;6.03;3.33;;;5.90;1.00;;;;;;5009677;28;20171;-76
2023/12/05 04:14:00;;;;;;;7.93;3.80;;;5.70;1.00;;;;;;5009869;28;20471;-77
2023/12/05 04:16:26;;;;;;;6.20;3.40;;;6.00;1.00;;;;;;5009099;28;20461;-77
2023/12/05 04:18:52;;;;;;;14.43;4.00;;;5.80;1.00;;;;;;5003836;28;20920;-77
2023/12/05 04:21:18;;;;;;;6.50;3.70;;;5.80;1.00;;;;;;5007561;28;20766;-76
2023/12/05 04:23:44;;;;;;;6.83;3.90;;;6.40;1.00;;;;;;5009496;28;20308;-77
2023/12/05 04:26:17;;;;;;;13.50;4.13;;;6.00;1.00;;;;;;5008631;28;20911;-75
2023/12/05 04:28:42;;;;;;;6.23;3.70;;;5.90;1.00;;;;;;5002791;28;20811;-78
2023/12/05 04:31:08;;;;;;;5.27;3.57;;;6.50;1.00;;;;;;5008467;28;20420;-75
2023/12/05 04:33:34;;;;;;;5.70;3.50;;;6.10;1.00;;;;;;5009572;28;20787;-76
2023/12/05 04:35:59;;;;;;;7.67;3.77;;;6.10;1.00;;;;;;5009288;28;20265;-77
2023/12/05 04:38:24;;;;;;;6.60;3.43;;;6.10;1.00;;;;;;5008431;28;20187;-77
2023/12/05 04:40:50;;;;;;;4.40;3.27;;;6.40;1.00;;;;;;5009303;28;20653;-76
2023/12/05 04:43:16;;;;;;;5.30;3.47;;;6.00;1.00;;;;;;5008588;28;20186;-77
2023/12/05 04:45:42;;;;;;;5.67;3.57;;;;;;;;;;5009075;28;20213;-76
2023/12/05 04:48:08;;;;;;;6.77;3.77;;;6.00;1.00;;;;;;5007340;28;20263;-77
2023/12/05 04:50:34;;;;;;;6.23;3.13;;;6.00;1.00;;;;;;5008848;28;20520;-77
2023/12/05 04:52:59;;;;;;;9.50;3.80;;;6.00;1.00;;;;;;5008937;28;20233;-78
2023/12/05 04:55:25;;;;;;;8.93;3.90;;;6.00;1.00;;;;;;5008504;28;20186;-77
2023/12/05 04:57:50;;;;;;;4.80;2.93;;;6.00;1.00;;;;;;5007944;28;20272;-77
2023/12/05 05:00:16;;;;;;;3.87;2.60;;;6.40;1.00;;;;;;5007801;28;20186;-76
2023/12/05 05:02:42;;;;;;;6.20;3.90;;;6.00;1.00;;;;;;5011902;28;20189;-76
2023/12/05 05:05:07;;;;;;;4.80;3.53;;;6.00;1.00;;;;;;5008627;28;20425;-76
2023/12/05 05:07:33;;;;;;;4.97;3.30;;;6.00;1.00;;;;;;5007631;28;20207;-74
2023/12/05 05:09:58;;;;;;;6.00;3.60;;;6.00;1.00;;;;;;5008376;28;20183;-75
2023/12/05 05:12:24;;;;;;;4.17;2.97;;;6.30;1.00;;;;;;5008155;28;20182;-79
2023/12/05 05:14:49;;;;;;;5.37;2.97;;;6.40;1.00;;;;;;5008887;28;20183;-76
2023/12/05 05:17:15;;;;;;;7.60;3.90;;;6.00;1.00;;;;;;5007904;28;20210;-77
2023/12/05 05:19:40;;;;;;;7.43;3.80;;;6.10;1.00;;;;;;5007937;28;20272;-77
2023/12/05 05:22:06;;;;;;;6.50;3.37;;;6.50;1.00;;;;;;5008156;28;20577;-76
2023/12/05 05:24:32;;;;;;;4.43;2.83;;;6.00;1.00;;;;;;5008505;28;20194;-76
2023/12/05 05:26:58;;;;;;;5.43;3.17;;;6.10;1.00;;;;;;5008357;28;20210;-76
2023/12/05 05:29:23;;;;;;;5.83;3.40;;;6.00;1.00;;;;;;5005683;28;20443;-77
2023/12/05 05:31:49;;;;;;;5.70;3.30;;;6.30;1.00;;;;;;5008193;28;20190;-76
2023/12/05 05:34:14;;;;;;;4.60;2.90;;;6.10;1.00;;;;;;5008498;28;20186;-76
2023/12/05 05:36:40;;;;;;;6.27;2.90;;;6.10;1.00;;;;;;5010907;28;20297;-77
2023/12/05 05:39:06;;;;;;;5.13;3.33;;;6.10;1.00;;;;;;5011519;28;20665;-76
2023/12/05 05:41:32;;;;;;;5.33;3.20;;;6.60;1.00;;;;;;5011707;28;20301;-77
2023/12/05 05:43:57;;;;;;;4.67;2.97;;;6.40;1.00;;;;;;5011171;28;20524;-77
2023/12/05 05:46:23;;;;;;;7.03;3.57;;;6.60;1.00;;;;;;5011212;28;20296;-77
2023/12/05 05:48:48;;;;;;;3.33;2.30;;;6.20;1.00;;;;;;5011855;28;20526;-76
2023/12/05 05:51:15;;;;;;;4.87;2.80;;;6.30;1.00;;;;;;5011428;28;20175;-77
2023/12/05 05:53:40;;;;;;;4.57;2.70;;;6.30;1.00;;;;;;5003249;28;20182;-78
2023/12/05 05:56:06;;;;;;;4.27;2.27;;;6.30;1.00;;;;;;5011578;28;20460;-76
2023/12/05 05:58:32;;;;;;;4.30;2.37;;;6.40;1.00;;;;;;5014973;28;20186;-77
2023/12/05 06:00:57;;;;;;;4.97;2.53;;;6.40;1.00;;;;;;5011638;28;20491;-76
2023/12/05 06:03:24;;;;;;;4.67;2.60;;;6.90;1.00;;;;;;5011609;28;20198;-77
2023/12/05 06:05:49;;;;;;;3.70;2.80;;;6.40;1.00;;;;;;5011315;28;20647;-76
2023/12/05 06:08:15;;;;;;;5.63;3.37;;;6.60;1.00;;;;;;5008075;28;20520;-78
2023/12/05 06:10:41;;;;;;;4.77;2.80;;;6.40;1.00;;;;;;5011723;28;20183;-76
2023/12/05 06:13:07;;;;;;;6.70;3.13;;;6.40;1.00;;;;;;5011462;28;20187;-76
2023/12/05 06:15:32;;;;;;;4.97;2.87;;;6.50;1.00;;;;;;5008143;28;20429;-76
2023/12/05 06:17:58;;;;;;;4.83;3.00;;;6.50;1.00;;;;;;5011688;28;20202;-77
2023/12/05 06:20:23;;;;;;;4.03;2.63;;;6.40;1.00;;;;;;5011159;28;20229;-76
2023/12/05 06:22:49;;;;;;;6.20;2.90;;;6.40;1.00;;;;;;5011379;28;20194;-76
2023/12/05 06:25:14;;;;;;;8.87;3.03;;;6.50;1.00;;;;;;5004722;28;20183;-76
2023/12/05 06:27:41;;;;;;;5.70;2.80;;;6.40;1.00;;;;;;5009788;28;20789;-74
2023/12/05 06:30:07;;;;;;;6.63;2.70;;;6.60;1.00;;;;;;5006174;28;20170;-77
2023/12/05 06:32:33;;;;;;;3.53;2.63;;;6.40;1.00;;;;;;5013549;28;20482;-78
2023/12/05 06:34:59;;;;;;;5.43;2.70;;;6.40;1.00;;;;;;5006675;28;20421;-76
2023/12/05 06:37:25;;;;;;;3.40;2.47;;;6.40;1.00;;;;;;5008928;28;20223;-76
2023/12/05 06:39:51;;;;;;;5.37;2.70;;;6.30;1.00;;;;;;5007581;28;20523;-76
2023/12/05 06:42:16;;;;;;;4.83;3.17;;;6.40;1.00;;;;;;5007613;28;20506;-76
2023/12/05 06:44:42;;;;;;;6.27;3.23;;;6.30;1.00;;;;;;5011228;28;20193;-76
2023/12/05 06:47:08;;;;;;;5.00;3.30;;;6.30;1.00;;;;;;5011701;28;20206;-76
2023/12/05 06:49:33;;;;;;;6.00;3.00;;;6.40;1.00;;;;;;5007166;28;20190;-77
2023/12/05 06:52:02;;;;;;;8.33;3.23;;;6.40;1.00;;;;;;5011007;28;20654;-77
2023/12/05 06:54:28;;;;;;;15.27;3.77;;;6.40;1.00;;;;;;5005920;28;20586;-77
2023/12/05 06:56:54;;;;;;;6.33;3.13;;;6.80;1.00;;;;;;5010446;28;20651;-76
2023/12/05 06:59:19;;;;;;;5.20;3.00;;;6.40;1.00;;;;;;5009954;28;20193;-77
2023/12/05 07:01:45;;;;;;;4.13;2.70;;;6.50;1.00;;;;;;5010701;28;20556;-74
2023/12/05 07:04:10;;;;;;;6.97;2.97;;;6.60;1.00;;;;;;5008090;28;20202;-76
2023/12/05 07:06:36;;;;;;;6.17;2.70;;;6.80;1.00;;;;;;5004864;28;20276;-76
2023/12/05 07:09:04;;;;;;;5.30;2.63;;;6.50;1.00;;;;;;5010832;28;20182;-78
2023/12/05 07:11:29;;;;;;;5.73;2.90;;;6.50;1.00;;;;;;5004244;28;20179;-78
2023/12/05 07:13:55;;;;;;;4.70;2.70;;;6.50;1.00;;;;;;5009560;28;20487;-77
2023/12/05 07:16:20;;;;;;;4.10;2.70;;;6.60;1.00;;;;;;5009548;28;20217;-77
2023/12/05 07:18:46;;;;;;;6.60;2.87;;;6.70;1.00;;;;;;5008728;28;20182;-77
2023/12/05 07:21:11;;;;;;;3.60;2.43;;;6.60;1.00;;;;;;5010265;28;20650;-77
2023/12/05 07:23:37;;;;;;;4.20;2.40;;;6.60;1.00;;;;;;5009952;28;20189;-77
2023/12/05 07:26:03;;;;;;;9.73;2.60;;;7.10;1.00;;;;;;5006685;28;20301;-77
2023/12/05 07:28:29;;;;;;;3.90;2.20;;;6.60;1.00;;;;;;5004554;28;20179;-77
2023/12/05 07:30:55;;;;;;;8.90;2.70;;;6.70;1.00;;;;;;5000682;28;20244;-78
2023/12/05 07:33:20;;;;;;;3.97;2.80;;;6.70;1.00;;;;;;5007947;28;20183;-74
2023/12/05 07:35:46;;;;;;;5.60;3.00;;;6.70;1.00;;;;;;5003250;28;20776;-76
2023/12/05 07:38:12;;;;;;;4.43;2.50;;;7.20;1.00;;;;;;5010002;28;20183;-76
2023/12/05 07:40:37;;;;;;;4.40;2.47;;;6.70;1.00;;;;;;5009837;28;20194;-76
2023/12/05 07:43:03;;;;;;;5.23;2.10;;;6.80;1.00;;;;;;5022619;28;20183;-78
2023/12/05 07:45:28;;;;;;;5.22;2.53;;;6.80;1.00;;;;;;5004433;28;20456;-77
2023/12/05 07:47:54;;;;;;;4.57;2.30;;;6.80;1.00;;;;;;5004143;28;20680;-77
2023/12/05 07:50:19;;;;;;;7.33;2.60;;;7.10;1.00;;;;;;5006366;28;20190;-76
2023/12/05 07:52:51;;;;;;;5.30;2.50;;;6.90;1.00;;;;;;5008825;28;20256;-75
2023/12/05 07:55:18;;;;;;;7.50;2.53;;;7.00;1.00;;;;;;5010226;28;20188;-77
2023/12/05 07:57:44;;;;;;;4.97;2.70;;;7.50;1.00;;;;;;5008586;28;20473;-77
2023/12/05 08:00:16;;;;;;;4.30;2.37;;;7.00;1.00;;;;;;5010404;28;20436;-78
2023/12/05 08:02:42;;;;;;;5.57;2.30;;;7.00;1.00;;;;;;5007582;28;23307;-78
2023/12/05 08:05:08;;;;;;;6.03;2.10;;;7.10;1.00;;;;;;5000991;28;20925;-77
2023/12/05 08:07:33;;;;;;;6.03;2.10;;;7.20;1.00;;;;;;5007462;28;20463;-77
2023/12/05 08:09:59;;;;;;;5.50;2.37;;;7.20;1.00;;;;;;5009710;28;20186;-76
2023/12/05 08:12:24;;;;;;;4.00;2.30;;;7.20;1.00;;;;;;5005506;28;20183;-78
2023/12/05 08:14:50;;;;;;;2.77;2.13;;;7.30;1.00;;;;;;5008100;28;20214;-77
2023/12/05 08:17:15;;;;;;;3.13;1.93;;;7.10;1.00;;;;;;5009629;28;20564;-77
2023/12/05 08:19:41;;;;;;;3.50;2.17;;;7.20;1.00;;;;;;5001947;28;20190;-76
2023/12/05 08:22:06;;;;;;;4.90;1.90;;;7.20;1.00;;;;;;5008928;28;20214;-75
2023/12/05 08:24:32;;;;;;;2.83;2.10;;;7.70;1.00;;;;;;4999614;28;20183;-73
2023/12/05 08:26:58;;;;;;;4.00;2.20;;;7.30;1.00;;;;;;5000039;28;20212;-75
2023/12/05 08:29:24;;;;;;;3.73;2.00;;;7.60;1.00;;;;;;5005798;28;20653;-76
2023/12/05 08:31:49;;;;;;;4.50;1.83;;;7.60;1.00;;;;;;4999621;28;20448;-74
2023/12/05 08:34:15;;;;;;;4.20;2.00;;;7.40;1.00;;;;;;5006586;28;20661;-75
2023/12/05 08:36:44;;;;;;;3.73;2.23;;;7.40;1.00;;;;;;5009376;28;20214;-74
2023/12/05 08:39:11;;;;;;;4.07;2.20;;;7.60;1.00;;;;;;5013188;28;20735;-76
2023/12/05 08:41:36;;;;;;;2.37;1.90;;;7.50;1.00;;;;;;5009295;28;20493;-76
2023/12/05 08:44:02;;;;;;;2.60;1.90;;;7.60;1.00;;;;;;5009552;28;20529;-76
2023/12/05 08:46:28;;;;;;;3.60;1.57;;;7.70;1.00;;;;;;5007593;28;20244;-73
2023/12/05 08:48:53;;;;;;;4.50;1.50;;;7.80;1.00;;;;;;5009197;28;20181;-76
2023/12/05 08:51:18;;;;;;;3.90;1.83;;;8.20;1.00;;;;;;5009580;28;20182;-75
2023/12/05 08:53:44;;;;;;;4.87;1.60;;;8.00;1.00;;;;;;5009352;28;20312;-75
2023/12/05 08:56:10;;;;;;;4.20;1.90;;;8.10;1.00;;;;;;5007490;28;20215;-72
2023/12/05 08:58:37;;;;;;;5.00;1.47;;;8.00;1.00;;;;;;5003661;28;20202;-76
2023/12/05 09:01:03;;;;;;;2.30;1.33;;;8.60;1.00;;;;;;5008065;28;20732;-74
2023/12/05 09:03:29;;;;;;;5.07;1.47;;;8.00;1.00;;;;;;5004573;28;20437;-75
2023/12/05 09:05:54;;;;;;;1.70;1.30;;;8.10;1.00;;;;;;5006258;28;20484;-73
2023/12/05 09:08:20;;;;;;;3.77;1.60;;;8.20;1.00;;;;;;5009376;28;20928;-75
2023/12/05 09:10:46;;;;;;;2.93;1.23;;;8.20;1.00;;;;;;5008696;28;20998;-74
2023/12/05 09:13:12;;;;;;;2.80;1.20;;;8.10;1.00;;;;;;5009917;28;20425;-76
2023/12/05 09:15:38;;;;;;;1.53;1.33;;;8.20;1.00;;;;;;5007735;28;20213;-76
2023/12/05 09:18:04;;;;;;;2.03;1.27;;;8.20;1.00;;;;;;5003770;28;20276;-77
2023/12/05 09:20:29;;;;;;;2.40;1.27;;;8.30;1.00;;;;;;5007782;28;20461;-75
2023/12/05 09:22:54;;;;;;;7.70;1.50;;;8.40;1.00;;;;;;5009693;28;20751;-73
2023/12/05 09:25:20;;;;;;;3.50;1.30;;;8.50;1.00;;;;;;5007417;28;20210;-74
2023/12/05 09:27:45;;;;;;;4.53;1.40;;;8.50;1.00;;;;;;5006955;28;20207;-74
2023/12/05 09:30:12;;;;;;;3.30;1.27;;;8.60;1.00;;;;;;5011872;28;20198;-74
2023/12/05 09:32:38;;;;;;;4.03;1.27;;;8.60;1.00;;;;;;5005191;28;20273;-75
2023/12/05 09:35:04;;;;;;;2.60;1.03;;;8.70;1.00;;;;;;5009010;28;20525;-76
2023/12/05 09:37:30;;;;;;;3.37;1.13;;;8.80;1.00;;;;;;5007139;28;20780;-75
2023/12/05 09:39:56;;;;;;;1.70;1.30;;;8.80;1.00;;;;;;5004130;28;20853;-74
2023/12/05 09:42:25;;;;;;;7.67;1.87;;;8.80;1.00;;;;;;5005168;28;20436;-74
2023/12/05 09:44:51;;;;;;;2.90;1.50;;;8.90;1.00;;;;;;5008521;28;20665;-72
2023/12/05 09:47:21;;;;;;;2.20;1.20;;;8.70;1.00;;;;;;5001961;28;20554;-76
2023/12/05 09:49:47;;;;;;;1.53;0.97;;;8.70;1.00;;;;;;5001612;28;20489;-76
2023/12/05 09:52:14;;;;;;;1.77;1.00;;;8.70;1.00;;;;;;5005253;28;20423;-77
2023/12/05 09:54:43;;;;;;;2.30;1.10;;;8.80;1.00;;;;;;5006432;28;20425;-77
2023/12/05 09:57:12;;;;;;;2.63;1.30;;;9.00;1.00;;;;;;5006100;28;20556;-75
2023/12/05 09:59:38;;;;;;;2.77;1.27;;;9.10;1.00;;;;;;5007520;28;20437;-76
2023/12/05 10:02:05;;;;;;;4.57;1.43;;;9.20;1.00;;;;;;5004944;28;20436;-75
2023/12/05 10:04:44;;;;;;;2.57;1.20;;;9.40;1.00;;;;;;5005506;28;20187;-76
2023/12/05 10:07:14;;;;;;;3.67;1.13;;;9.60;1.00;;;;;;5001932;28;20878;-76
2023/12/05 10:09:43;;;;;;;2.33;1.20;;;9.60;1.00;;;;;;5006092;28;20430;-75
2023/12/05 10:12:10;;;;;;;6.97;1.37;;;9.70;1.00;;;;;;5010852;28;20509;-71
2023/12/05 10:14:37;;;;;;;2.00;1.17;;;9.70;1.00;;;;;;5002276;28;20470;-73
2023/12/05 10:17:04;;;;;;;2.90;1.23;;;9.70;1.00;;;;;;5005521;28;20475;-75
2023/12/05 10:19:31;;;;;;;1.50;1.00;;;9.80;1.00;;;;;;5010508;28;20825;-74
2023/12/05 10:21:58;;;;;;;5.33;1.47;;;9.70;1.00;;;;;;5010406;28;20452;-75
2023/12/05 10:24:24;;;;;;;2.03;1.20;;;9.60;1.00;;;;;;5006228;28;20499;-73
2023/12/05 10:26:49;;;;;;;2.97;1.40;;;9.50;1.00;;;;;;5010959;28;20468;-76
2023/12/05 10:29:16;;;;;;;1.40;1.00;;;9.30;1.00;;;;;;5009117;28;20183;-76
2023/12/05 10:31:42;;;;;;;1.70;1.00;;;9.20;1.00;;;;;;5009128;28;20674;-73
2023/12/05 10:34:11;;;;;;;4.47;1.20;;;9.10;1.00;;;;;;5007094;28;20432;-76
2023/12/05 10:36:38;;;;;;;4.87;1.10;;;9.00;1.00;;;;;;5005549;28;21359;-73
2023/12/05 10:39:05;;;;;;;1.37;1.00;;;9.00;1.00;;;;;;5014294;28;20815;-76
2023/12/05 10:41:31;;;;;;;2.90;1.10;;;9.20;1.00;;;;;;5011813;28;20878;-75
2023/12/05 10:43:56;;;;;;;2.17;1.03;;;9.10;1.00;;;;;;5011211;28;20442;-73
2023/12/05 10:46:25;;;;;;;3.03;1.10;;;9.00;1.00;;;;;;5003450;28;20207;-76
2023/12/05 10:48:50;;;;;;;6.53;1.10;;;9.10;1.00;;;;;;5010789;28;20201;-74
2023/12/05 10:51:16;;;;;;;1.53;1.10;;;9.00;1.00;;;;;;5011597;28;20928;-75
2023/12/05 10:53:42;;;;;;;1.70;1.03;;;9.00;1.00;;;;;;5011586;28;20190;-75
2023/12/05 10:56:15;;;;;;;1.47;0.90;;;9.00;1.00;;;;;;5010431;28;20229;-74
2023/12/05 10:58:42;;;;;;;1.83;1.00;;;9.10;1.00;;;;;;5010995;28;20430;-75
2023/12/05 11:01:10;;;;;;;2.80;1.07;;;9.10;1.00;;;;;;5006524;28;20414;-73
2023/12/05 11:03:41;;;;;;;2.83;1.10;;;9.10;1.00;;;;;;5011300;28;20456;-73
2023/12/05 11:06:07;;;;;;;2.63;1.50;;;9.10;1.00;;;;;;5002309;28;21094;-74
2023/12/05 11:08:34;;;;;;;3.87;1.00;;;9.10;1.00;;;;;;5009889;28;20973;-75
2023/12/05 11:11:03;;;;;;;1.47;1.10;;;9.10;1.00;;;;;;5008866;28;20421;-74
2023/12/05 11:13:32;;;;;;;1.97;1.30;;;9.00;1.00;;;;;;5006268;28;20424;-74
2023/12/05 11:16:02;;;;;;;2.33;1.40;;;9.10;1.00;;;;;;5011183;28;20433;-76
2023/12/05 11:18:42;;;;;;;1.83;1.00;;;9.10;1.00;;;;;;5011134;28;20421;-76
2023/12/05 11:21:32;;;;;;;1.60;0.80;;;9.10;1.00;;;;;;5006348;28;20536;-75
2023/12/05 11:24:15;;;;;;;2.00;1.30;;;9.20;1.00;;;;;;5009537;28;20426;-75
2023/12/05 11:27:16;;;;;;;2.17;1.10;;;9.20;1.00;;;;;;5009264;28;20560;-76
2023/12/05 11:29:44;;;;;;;1.60;1.20;;;9.40;1.00;;;;;;5007766;28;20476;-75
2023/12/05 11:32:29;;;;;;;2.17;1.30;;;9.50;1.00;;;;;;5009847;28;20418;-75
2023/12/05 11:35:16;;;;;;;1.40;1.00;;;9.50;1.00;;;;;;5010203;28;20424;-74
2023/12/05 11:38:12;;;;;;;2.53;1.20;;;9.60;1.00;;;;;;5010103;28;21078;-76
2023/12/05 11:40:37;;;;;;;2.90;1.33;;;9.60;1.00;;;;;;5009016;28;20456;-76
2023/12/05 11:43:07;;;;;;;2.70;1.40;;;9.70;1.00;;;;;;5007673;28;20422;-76
2023/12/05 11:45:44;;;;;;;1.20;1.00;;;9.60;1.00;;;;;;5007030;28;20191;-76
2023/12/05 11:48:11;;;;;;;1.73;0.90;;;9.50;1.00;;;;;;5003314;28;20421;-76
2023/12/05 11:50:40;;;;;;;1.10;1.00;;;9.50;1.00;;;;;;5010801;28;20823;-76
2023/12/05 11:53:08;;;;;;;5.00;1.10;;;9.40;1.00;;;;;;5010492;28;20425;-77
2023/12/05 11:55:34;;;;;;;1.63;1.00;;;9.30;1.00;;;;;;5001614;28;20431;-76
2023/12/05 11:58:00;;;;;;;1.83;1.00;;;9.30;1.00;;;;;;5010122;28;20453;-72
2023/12/05 12:00:29;;;;;;;1.83;1.00;;;9.90;1.00;;;;;;5010081;28;20859;-78
2023/12/05 12:02:59;;;;;;;2.87;1.10;;;9.90;1.00;;;;;;5007092;28;20190;-77
2023/12/05 12:05:24;;;;;;;1.70;1.00;;;9.60;1.00;;;;;;5005755;28;20493;-73
2023/12/05 12:07:57;;;;;;;2.80;1.30;;;9.50;1.00;;;;;;5006807;28;20489;-76
2023/12/05 12:10:24;;;;;;;5.90;1.13;;;9.40;1.00;;;;;;5005490;28;20260;-73
2023/12/05 12:12:52;;;;;;;1.70;1.10;;;9.40;1.00;;;;;;5009741;28;20509;-77
2023/12/05 12:15:21;;;;;;;3.13;1.50;;;9.20;1.00;;;;;;5011415;28;20503;-75
2023/12/05 12:17:48;;;;;;;2.23;1.43;;;9.20;1.00;;;;;;5009658;28;20847;-73
2023/12/05 12:20:17;;;;;;;4.27;1.30;;;9.20;1.00;;;;;;5010079;28;20504;-75
2023/12/05 12:22:48;;;;;;;1.20;0.90;;;9.20;1.00;;;;;;5008003;28;20521;-75
2023/12/05 12:25:17;;;;;;;1.40;0.90;;;9.20;1.00;;;;;;5002325;28;20428;-76
2023/12/05 12:27:44;;;;;;;1.73;1.10;;;9.10;1.00;;;;;;5008907;28;20468;-76
2023/12/05 12:30:15;;;;;;;1.23;0.80;;;9.20;1.00;;;;;;5008396;28;20448;-74
2023/12/05 12:32:59;;;;;;;1.87;1.00;;;9.10;1.00;;;;;;5009222;28;20970;-75
2023/12/05 12:35:25;;;;;;;1.20;1.10;;;9.10;1.00;;;;;;4997699;28;20505;-76
2023/12/05 12:37:51;;;;;;;3.00;1.00;;;9.20;1.00;;;;;;5009097;28;20536;-75
2023/12/05 12:40:18;;;;;;;7.30;1.80;;;9.30;1.00;;;;;;5009262;28;20179;-77
2023/12/05 12:42:44;;;;;;;1.70;1.07;;;9.40;1.00;;;;;;5011000;28;20887;-76
2023/12/05 12:45:11;;;;;;;1.83;1.13;;;9.40;1.00;;;;;;5006326;28;20568;-76
2023/12/05 12:47:36;;;;;;;1.10;0.90;;;9.40;1.00;;;;;;5005160;28;20476;-75
2023/12/05 12:50:02;;;;;;;1.50;1.00;;;9.40;1.00;;;;;;5009482;28;20437;-76
2023/12/05 12:52:28;;;;;;;2.30;1.00;;;9.30;1.00;;;;;;5008049;28;20179;-74
2023/12/05 12:54:53;;;;;;;1.33;1.10;;;9.30;1.00;;;;;;5007558;28;20952;-77
2023/12/05 12:57:22;;;;;;;3.63;1.00;;;9.40;1.00;;;;;;5007966;28;20224;-74
2023/12/05 12:59:51;;;;;;;9.63;1.43;;;9.30;1.00;;;;;;5009927;28;20189;-75
2023/12/05 13:02:18;;;;;;;1.77;1.17;;;9.20;1.00;;;;;;5008573;28;20426;-74
2023/12/05 13:04:44;;;;;;;1.17;1.00;;;9.20;1.00;;;;;;5005687;28;20475;-76
2023/12/05 13:07:24;;;;;;;1.43;1.03;;;9.10;1.00;;;;;;5002195;28;21022;-75